sensor_id;sensor_type;location;lat;lon;timestamp;pressure;altitude;pressure_sealevel;temperature;humidity
30339;BME280;795;49.296;11.348;2023-03-14T00:01:17;94773.13;;;7.89;100.00
30339;BME280;795;49.296;11.348;2023-03-14T00:03:44;94753.97;;;7.86;100.00
30339;BME280;795;49.296;11.348;2023-03-14T00:06:12;94747.28;;;7.75;100.00
30339;BME280;795;49.296;11.348;2023-03-14T00:08:42;94775.81;;;7.89;100.00
30339;BME280;795;49.296;11.348;2023-03-14T00:11:16;94747.25;;;7.69;100.00
30339;BME280;795;49.296;11.348;2023-03-14T00:13:46;94761.47;;;7.76;100.00
30339;BME280;795;49.296;11.348;2023-03-14T00:16:13;94783.16;;;7.87;100.00
30339;BME280;795;49.296;11.348;2023-03-14T00:18:41;94777.34;;;7.77;100.00
30339;BME280;795;49.296;11.348;2023-03-14T00:21:10;94803.78;;;7.93;100.00
30339;BME280;795;49.296;11.348;2023-03-14T00:23:40;94809.16;;;8.00;100.00
30339;BME280;795;49.296;11.348;2023-03-14T00:26:16;94796.50;;;7.87;100.00
30339;BME280;795;49.296;11.348;2023-03-14T00:28:44;94826.25;;;7.99;100.00
30339;BME280;795;49.296;11.348;2023-03-14T00:31:15;94837.56;;;8.01;100.00
30339;BME280;795;49.296;11.348;2023-03-14T00:33:44;94860.56;;;8.02;100.00
30339;BME280;795;49.296;11.348;2023-03-14T00:36:16;94859.50;;;7.96;100.00
30339;BME280;795;49.296;11.348;2023-03-14T00:38:47;94877.91;;;8.06;100.00
30339;BME280;795;49.296;11.348;2023-03-14T00:41:20;94859.56;;;8.03;100.00
30339;BME280;795;49.296;11.348;2023-03-14T00:43:51;94858.31;;;7.99;100.00
30339;BME280;795;49.296;11.348;2023-03-14T00:46:18;94887.81;;;8.12;100.00
30339;BME280;795;49.296;11.348;2023-03-14T00:48:46;94861.34;;;7.96;100.00
30339;BME280;795;49.296;11.348;2023-03-14T00:51:14;94889.47;;;8.13;100.00
30339;BME280;795;49.296;11.348;2023-03-14T00:53:42;94899.13;;;8.14;100.00
30339;BME280;795;49.296;11.348;2023-03-14T00:56:12;94890.31;;;8.14;100.00
30339;BME280;795;49.296;11.348;2023-03-14T00:58:39;94875.66;;;8.10;100.00
30339;BME280;795;49.296;11.348;2023-03-14T01:01:16;94820.50;;;8.02;100.00
30339;BME280;795;49.296;11.348;2023-03-14T01:03:44;94796.19;;;7.97;100.00
30339;BME280;795;49.296;11.348;2023-03-14T01:06:18;94805.22;;;8.17;100.00
30339;BME280;795;49.296;11.348;2023-03-14T01:08:47;94809.78;;;8.02;100.00
30339;BME280;795;49.296;11.348;2023-03-14T01:11:25;94828.34;;;8.03;100.00
30339;BME280;795;49.296;11.348;2023-03-14T01:13:54;94848.81;;;8.18;100.00
30339;BME280;795;49.296;11.348;2023-03-14T01:16:26;94823.66;;;8.12;100.00
30339;BME280;795;49.296;11.348;2023-03-14T01:18:54;94768.84;;;7.95;100.00
30339;BME280;795;49.296;11.348;2023-03-14T01:21:29;94784.06;;;8.22;100.00
30339;BME280;795;49.296;11.348;2023-03-14T01:24:00;94757.34;;;8.22;100.00
30339;BME280;795;49.296;11.348;2023-03-14T01:26:31;94737.81;;;8.22;100.00
30339;BME280;795;49.296;11.348;2023-03-14T01:28:59;94741.75;;;8.26;100.00
30339;BME280;795;49.296;11.348;2023-03-14T01:31:27;94705.72;;;8.22;100.00
30339;BME280;795;49.296;11.348;2023-03-14T01:33:54;94680.41;;;8.18;100.00
30339;BME280;795;49.296;11.348;2023-03-14T01:36:22;94650.75;;;8.06;100.00
30339;BME280;795;49.296;11.348;2023-03-14T01:38:48;94682.06;;;8.19;100.00
30339;BME280;795;49.296;11.348;2023-03-14T01:41:26;94648.81;;;7.93;100.00
30339;BME280;795;49.296;11.348;2023-03-14T01:43:53;94691.94;;;8.18;100.00
30339;BME280;795;49.296;11.348;2023-03-14T01:46:26;94681.25;;;8.18;100.00
30339;BME280;795;49.296;11.348;2023-03-14T01:52:08;94635.31;;;8.01;100.00
30339;BME280;795;49.296;11.348;2023-03-14T01:54:46;94687.81;;;8.16;100.00
30339;BME280;795;49.296;11.348;2023-03-14T01:57:27;94679.69;;;8.02;100.00
30339;BME280;795;49.296;11.348;2023-03-14T02:00:07;94712.88;;;8.15;100.00
30339;BME280;795;49.296;11.348;2023-03-14T02:02:44;94706.25;;;8.04;100.00
30339;BME280;795;49.296;11.348;2023-03-14T02:05:18;94743.09;;;8.15;100.00
30339;BME280;795;49.296;11.348;2023-03-14T02:07:56;94739.44;;;8.16;100.00
30339;BME280;795;49.296;11.348;2023-03-14T02:10:32;94734.50;;;8.20;100.00
30339;BME280;795;49.296;11.348;2023-03-14T02:13:05;94712.16;;;7.99;100.00
30339;BME280;795;49.296;11.348;2023-03-14T02:15:33;94756.09;;;8.18;100.00
30339;BME280;795;49.296;11.348;2023-03-14T02:18:03;94772.72;;;8.14;100.00
30339;BME280;795;49.296;11.348;2023-03-14T02:24:29;94765.13;;;8.17;100.00
30339;BME280;795;49.296;11.348;2023-03-14T02:27:14;94768.81;;;8.16;100.00
30339;BME280;795;49.296;11.348;2023-03-14T02:30:08;94754.00;;;8.14;100.00
30339;BME280;795;49.296;11.348;2023-03-14T02:32:42;94706.75;;;7.93;100.00
30339;BME280;795;49.296;11.348;2023-03-14T02:35:18;94734.97;;;8.02;100.00
30339;BME280;795;49.296;11.348;2023-03-14T02:38:35;94741.78;;;8.04;100.00
30339;BME280;795;49.296;11.348;2023-03-14T02:41:05;94739.09;;;8.04;100.00
30339;BME280;795;49.296;11.348;2023-03-14T02:43:32;94743.25;;;8.07;100.00
30339;BME280;795;49.296;11.348;2023-03-14T02:46:01;94722.66;;;8.01;100.00
30339;BME280;795;49.296;11.348;2023-03-14T02:48:43;94709.63;;;7.91;100.00
30339;BME280;795;49.296;11.348;2023-03-14T02:51:13;94711.47;;;7.91;100.00
30339;BME280;795;49.296;11.348;2023-03-14T02:53:41;94727.84;;;8.09;100.00
30339;BME280;795;49.296;11.348;2023-03-14T02:56:10;94688.44;;;7.90;100.00
30339;BME280;795;49.296;11.348;2023-03-14T02:58:38;94709.09;;;8.02;100.00
30339;BME280;795;49.296;11.348;2023-03-14T03:01:06;94717.34;;;8.08;100.00
30339;BME280;795;49.296;11.348;2023-03-14T03:03:33;94688.28;;;7.91;100.00
30339;BME280;795;49.296;11.348;2023-03-14T03:06:00;94684.72;;;7.84;100.00
30339;BME280;795;49.296;11.348;2023-03-14T03:08:28;94708.44;;;7.94;100.00
30339;BME280;795;49.296;11.348;2023-03-14T03:10:57;94677.44;;;7.72;100.00
30339;BME280;795;49.296;11.348;2023-03-14T03:13:25;94681.56;;;7.74;100.00
30339;BME280;795;49.296;11.348;2023-03-14T03:15:53;94726.50;;;7.92;100.00
30339;BME280;795;49.296;11.348;2023-03-14T03:18:21;94704.44;;;7.83;100.00
30339;BME280;795;49.296;11.348;2023-03-14T03:20:48;94707.31;;;7.82;100.00
30339;BME280;795;49.296;11.348;2023-03-14T03:23:15;94714.53;;;7.88;100.00
30339;BME280;795;49.296;11.348;2023-03-14T03:25:42;94697.50;;;7.89;100.00
30339;BME280;795;49.296;11.348;2023-03-14T03:28:14;94692.16;;;7.89;100.00
30339;BME280;795;49.296;11.348;2023-03-14T03:30:42;94678.84;;;7.95;100.00
30339;BME280;795;49.296;11.348;2023-03-14T03:33:10;94674.31;;;7.96;100.00
30339;BME280;795;49.296;11.348;2023-03-14T03:35:48;94627.78;;;7.84;100.00
30339;BME280;795;49.296;11.348;2023-03-14T03:38:16;94668.84;;;8.04;100.00
30339;BME280;795;49.296;11.348;2023-03-14T03:40:44;94635.22;;;7.88;100.00
30339;BME280;795;49.296;11.348;2023-03-14T03:43:11;94648.84;;;8.00;100.00
30339;BME280;795;49.296;11.348;2023-03-14T03:45:38;94626.59;;;7.86;100.00
30339;BME280;795;49.296;11.348;2023-03-14T03:48:05;94639.72;;;7.88;100.00
30339;BME280;795;49.296;11.348;2023-03-14T03:50:32;94660.34;;;7.94;100.00
30339;BME280;795;49.296;11.348;2023-03-14T03:52:59;94649.34;;;7.82;100.00
30339;BME280;795;49.296;11.348;2023-03-14T03:55:26;94631.00;;;7.73;100.00
30339;BME280;795;49.296;11.348;2023-03-14T03:57:54;94655.09;;;7.79;100.00
30339;BME280;795;49.296;11.348;2023-03-14T04:00:21;94648.22;;;7.70;100.00
30339;BME280;795;49.296;11.348;2023-03-14T04:02:48;94653.78;;;7.69;100.00
30339;BME280;795;49.296;11.348;2023-03-14T04:05:16;94619.75;;;7.50;100.00
30339;BME280;795;49.296;11.348;2023-03-14T04:07:43;94638.13;;;7.66;100.00
30339;BME280;795;49.296;11.348;2023-03-14T04:10:10;94613.41;;;7.51;100.00
30339;BME280;795;49.296;11.348;2023-03-14T04:12:37;94607.41;;;7.49;100.00
30339;BME280;795;49.296;11.348;2023-03-14T04:15:05;94639.09;;;7.58;100.00
30339;BME280;795;49.296;11.348;2023-03-14T04:17:32;94612.19;;;7.53;100.00
30339;BME280;795;49.296;11.348;2023-03-14T04:19:58;94586.38;;;7.39;100.00
30339;BME280;795;49.296;11.348;2023-03-14T04:22:25;94608.44;;;7.48;100.00
30339;BME280;795;49.296;11.348;2023-03-14T04:24:52;94608.28;;;7.56;100.00
30339;BME280;795;49.296;11.348;2023-03-14T04:27:19;94583.91;;;7.38;100.00
30339;BME280;795;49.296;11.348;2023-03-14T04:29:46;94604.09;;;7.47;100.00
30339;BME280;795;49.296;11.348;2023-03-14T04:32:13;94574.13;;;7.17;100.00
30339;BME280;795;49.296;11.348;2023-03-14T04:34:41;94600.94;;;7.36;100.00
30339;BME280;795;49.296;11.348;2023-03-14T04:37:08;94597.97;;;7.25;100.00
30339;BME280;795;49.296;11.348;2023-03-14T04:39:34;94607.56;;;7.41;100.00
30339;BME280;795;49.296;11.348;2023-03-14T04:42:01;94614.94;;;7.39;100.00
30339;BME280;795;49.296;11.348;2023-03-14T04:44:28;94578.66;;;7.23;100.00
30339;BME280;795;49.296;11.348;2023-03-14T04:46:55;94575.78;;;7.24;100.00
30339;BME280;795;49.296;11.348;2023-03-14T04:49:22;94611.06;;;7.41;100.00
30339;BME280;795;49.296;11.348;2023-03-14T04:51:49;94620.91;;;7.41;100.00
30339;BME280;795;49.296;11.348;2023-03-14T04:54:18;94619.28;;;7.46;100.00
30339;BME280;795;49.296;11.348;2023-03-14T04:56:45;94590.44;;;7.28;100.00
30339;BME280;795;49.296;11.348;2023-03-14T04:59:12;94612.50;;;7.44;100.00
30339;BME280;795;49.296;11.348;2023-03-14T05:01:38;94600.47;;;7.26;100.00
30339;BME280;795;49.296;11.348;2023-03-14T05:04:05;94609.44;;;7.47;100.00
30339;BME280;795;49.296;11.348;2023-03-14T05:06:32;94618.66;;;7.44;100.00
30339;BME280;795;49.296;11.348;2023-03-14T05:08:59;94623.38;;;7.42;100.00
30339;BME280;795;49.296;11.348;2023-03-14T05:11:26;94605.91;;;7.40;100.00
30339;BME280;795;49.296;11.348;2023-03-14T05:13:53;94579.28;;;7.25;100.00
30339;BME280;795;49.296;11.348;2023-03-14T05:16:20;94594.13;;;7.34;100.00
30339;BME280;795;49.296;11.348;2023-03-14T05:18:47;94594.72;;;7.29;100.00
30339;BME280;795;49.296;11.348;2023-03-14T05:21:14;94589.78;;;7.26;100.00
30339;BME280;795;49.296;11.348;2023-03-14T05:23:41;94593.44;;;7.19;100.00
30339;BME280;795;49.296;11.348;2023-03-14T05:26:08;94598.84;;;7.32;100.00
30339;BME280;795;49.296;11.348;2023-03-14T05:28:35;94601.09;;;7.28;100.00
30339;BME280;795;49.296;11.348;2023-03-14T05:31:07;94570.00;;;7.14;100.00
30339;BME280;795;49.296;11.348;2023-03-14T05:33:34;94573.41;;;7.08;100.00
30339;BME280;795;49.296;11.348;2023-03-14T05:36:01;94584.00;;;7.23;100.00
30339;BME280;795;49.296;11.348;2023-03-14T05:38:28;94593.94;;;7.29;100.00
30339;BME280;795;49.296;11.348;2023-03-14T05:40:55;94570.53;;;7.10;100.00
30339;BME280;795;49.296;11.348;2023-03-14T05:43:22;94565.72;;;7.20;100.00
30339;BME280;795;49.296;11.348;2023-03-14T05:45:49;94558.91;;;7.17;100.00
30339;BME280;795;49.296;11.348;2023-03-14T05:48:16;94576.88;;;7.30;100.00
30339;BME280;795;49.296;11.348;2023-03-14T05:50:44;94562.94;;;7.34;100.00
30339;BME280;795;49.296;11.348;2023-03-14T05:53:10;94563.16;;;7.33;100.00
30339;BME280;795;49.296;11.348;2023-03-14T05:55:39;94568.91;;;7.36;100.00
30339;BME280;795;49.296;11.348;2023-03-14T05:58:06;94575.25;;;7.29;100.00
30339;BME280;795;49.296;11.348;2023-03-14T06:00:33;94566.78;;;7.25;100.00
30339;BME280;795;49.296;11.348;2023-03-14T06:03:00;94567.03;;;7.30;100.00
30339;BME280;795;49.296;11.348;2023-03-14T06:05:27;94544.19;;;7.21;100.00
30339;BME280;795;49.296;11.348;2023-03-14T06:07:53;94572.16;;;7.32;100.00
30339;BME280;795;49.296;11.348;2023-03-14T06:10:20;94562.78;;;7.36;100.00
30339;BME280;795;49.296;11.348;2023-03-14T06:12:48;94550.16;;;7.23;100.00
30339;BME280;795;49.296;11.348;2023-03-14T06:15:15;94553.91;;;7.29;100.00
30339;BME280;795;49.296;11.348;2023-03-14T06:17:41;94555.09;;;7.26;100.00
30339;BME280;795;49.296;11.348;2023-03-14T06:20:10;94558.22;;;7.36;100.00
30339;BME280;795;49.296;11.348;2023-03-14T06:22:37;94561.16;;;7.42;100.00
30339;BME280;795;49.296;11.348;2023-03-14T06:25:08;94565.47;;;7.43;100.00
30339;BME280;795;49.296;11.348;2023-03-14T06:27:36;94551.84;;;7.31;100.00
30339;BME280;795;49.296;11.348;2023-03-14T06:30:03;94531.25;;;7.25;100.00
30339;BME280;795;49.296;11.348;2023-03-14T06:32:31;94561.78;;;7.44;100.00
30339;BME280;795;49.296;11.348;2023-03-14T06:34:57;94549.25;;;7.44;100.00
30339;BME280;795;49.296;11.348;2023-03-14T06:37:28;94560.03;;;7.57;100.00
30339;BME280;795;49.296;11.348;2023-03-14T06:39:55;94536.53;;;7.46;100.00
30339;BME280;795;49.296;11.348;2023-03-14T06:42:22;94544.63;;;7.59;100.00
30339;BME280;795;49.296;11.348;2023-03-14T06:44:49;94553.97;;;7.70;100.00
30339;BME280;795;49.296;11.348;2023-03-14T06:47:16;94525.31;;;7.57;100.00
30339;BME280;795;49.296;11.348;2023-03-14T06:49:43;94547.22;;;7.80;100.00
30339;BME280;795;49.296;11.348;2023-03-14T06:52:10;94526.84;;;7.73;100.00
30339;BME280;795;49.296;11.348;2023-03-14T06:54:37;94560.06;;;7.98;100.00
30339;BME280;795;49.296;11.348;2023-03-14T06:57:04;94529.38;;;7.87;100.00
30339;BME280;795;49.296;11.348;2023-03-14T06:59:31;94552.50;;;8.08;100.00
30339;BME280;795;49.296;11.348;2023-03-14T07:01:58;94544.31;;;8.16;100.00
30339;BME280;795;49.296;11.348;2023-03-14T07:04:25;94477.41;;;7.90;100.00
30339;BME280;795;49.296;11.348;2023-03-14T07:06:52;94542.78;;;8.41;100.00
30339;BME280;795;49.296;11.348;2023-03-14T07:09:19;94524.50;;;8.45;100.00
30339;BME280;795;49.296;11.348;2023-03-14T07:11:46;94515.81;;;8.36;100.00
30339;BME280;795;49.296;11.348;2023-03-14T07:14:13;94515.44;;;8.39;100.00
30339;BME280;795;49.296;11.348;2023-03-14T07:16:40;94540.41;;;8.79;100.00
30339;BME280;795;49.296;11.348;2023-03-14T07:19:07;94510.16;;;8.79;100.00
30339;BME280;795;49.296;11.348;2023-03-14T07:21:34;94505.84;;;8.97;100.00
30339;BME280;795;49.296;11.348;2023-03-14T07:24:01;94522.13;;;9.15;100.00
30339;BME280;795;49.296;11.348;2023-03-14T07:26:28;94535.72;;;9.27;100.00
30339;BME280;795;49.296;11.348;2023-03-14T07:28:55;94518.41;;;9.10;100.00
30339;BME280;795;49.296;11.348;2023-03-14T07:31:22;94558.38;;;9.44;100.00
30339;BME280;795;49.296;11.348;2023-03-14T07:33:50;94546.19;;;9.35;100.00
30339;BME280;795;49.296;11.348;2023-03-14T07:36:17;94558.13;;;9.52;100.00
30339;BME280;795;49.296;11.348;2023-03-14T07:38:44;94551.75;;;9.53;100.00
30339;BME280;795;49.296;11.348;2023-03-14T07:41:10;94557.13;;;9.53;100.00
30339;BME280;795;49.296;11.348;2023-03-14T07:43:37;94562.91;;;9.37;100.00
30339;BME280;795;49.296;11.348;2023-03-14T07:46:05;94568.44;;;9.29;100.00
30339;BME280;795;49.296;11.348;2023-03-14T07:48:32;94568.03;;;9.19;100.00
30339;BME280;795;49.296;11.348;2023-03-14T07:50:59;94549.50;;;8.98;100.00
30339;BME280;795;49.296;11.348;2023-03-14T07:53:26;94580.78;;;9.04;100.00
30339;BME280;795;49.296;11.348;2023-03-14T07:55:54;94571.34;;;9.08;100.00
30339;BME280;795;49.296;11.348;2023-03-14T07:58:22;94582.84;;;9.21;100.00
30339;BME280;795;49.296;11.348;2023-03-14T08:00:50;94576.88;;;9.32;100.00
30339;BME280;795;49.296;11.348;2023-03-14T08:03:18;94576.69;;;9.27;100.00
30339;BME280;795;49.296;11.348;2023-03-14T08:05:49;94559.16;;;9.18;100.00
30339;BME280;795;49.296;11.348;2023-03-14T08:08:18;94569.88;;;9.38;100.00
30339;BME280;795;49.296;11.348;2023-03-14T08:10:45;94550.31;;;9.31;100.00
30339;BME280;795;49.296;11.348;2023-03-14T08:13:13;94519.22;;;9.23;100.00
30339;BME280;795;49.296;11.348;2023-03-14T08:15:41;94538.19;;;9.42;100.00
30339;BME280;795;49.296;11.348;2023-03-14T08:18:08;94531.16;;;9.41;100.00
30339;BME280;795;49.296;11.348;2023-03-14T08:20:36;94526.81;;;9.66;100.00
30339;BME280;795;49.296;11.348;2023-03-14T08:23:03;94520.41;;;9.73;100.00
30339;BME280;795;49.296;11.348;2023-03-14T08:25:30;94509.25;;;9.83;100.00
30339;BME280;795;49.296;11.348;2023-03-14T08:27:58;94537.22;;;10.07;100.00
30339;BME280;795;49.296;11.348;2023-03-14T08:30:25;94511.03;;;9.95;100.00
30339;BME280;795;49.296;11.348;2023-03-14T08:32:53;94521.34;;;10.12;100.00
30339;BME280;795;49.296;11.348;2023-03-14T08:35:20;94500.47;;;10.27;100.00
30339;BME280;795;49.296;11.348;2023-03-14T08:37:47;94493.59;;;10.37;100.00
30339;BME280;795;49.296;11.348;2023-03-14T08:40:14;94516.41;;;10.53;100.00
30339;BME280;795;49.296;11.348;2023-03-14T08:42:43;94518.75;;;10.43;100.00
30339;BME280;795;49.296;11.348;2023-03-14T08:45:16;94513.69;;;10.59;100.00
30339;BME280;795;49.296;11.348;2023-03-14T08:47:45;94508.31;;;10.91;100.00
30339;BME280;795;49.296;11.348;2023-03-14T08:50:13;94498.50;;;10.78;100.00
30339;BME280;795;49.296;11.348;2023-03-14T08:52:42;94497.00;;;11.13;100.00
30339;BME280;795;49.296;11.348;2023-03-14T08:55:10;94506.41;;;10.98;100.00
30339;BME280;795;49.296;11.348;2023-03-14T08:57:37;94501.03;;;11.04;100.00
30339;BME280;795;49.296;11.348;2023-03-14T09:00:05;94472.69;;;11.08;100.00
30339;BME280;795;49.296;11.348;2023-03-14T09:03:49;94480.97;;;11.74;100.00
30339;BME280;795;49.296;11.348;2023-03-14T09:06:17;94493.75;;;11.79;100.00
30339;BME280;795;49.296;11.348;2023-03-14T09:08:45;94502.03;;;11.77;100.00
30339;BME280;795;49.296;11.348;2023-03-14T09:11:13;94476.19;;;11.94;100.00
30339;BME280;795;49.296;11.348;2023-03-14T09:13:41;94485.09;;;11.77;100.00
30339;BME280;795;49.296;11.348;2023-03-14T09:16:08;94474.94;;;11.97;100.00
30339;BME280;795;49.296;11.348;2023-03-14T09:18:36;94496.88;;;12.12;100.00
30339;BME280;795;49.296;11.348;2023-03-14T09:21:03;94513.38;;;12.34;100.00
30339;BME280;795;49.296;11.348;2023-03-14T09:23:31;94514.59;;;13.27;99.07
30339;BME280;795;49.296;11.348;2023-03-14T09:26:00;94499.28;;;13.97;84.65
30339;BME280;795;49.296;11.348;2023-03-14T09:28:27;94485.31;;;13.42;89.21
30339;BME280;795;49.296;11.348;2023-03-14T09:30:54;94506.41;;;13.34;90.60
30339;BME280;795;49.296;11.348;2023-03-14T09:33:22;94475.34;;;13.43;89.52
30339;BME280;795;49.296;11.348;2023-03-14T09:35:49;94472.19;;;13.46;83.63
30339;BME280;795;49.296;11.348;2023-03-14T09:38:16;94501.84;;;13.57;84.67
30339;BME280;795;49.296;11.348;2023-03-14T09:40:43;94498.66;;;13.37;86.03
30339;BME280;795;49.296;11.348;2023-03-14T09:43:15;94508.00;;;13.23;84.14
30339;BME280;795;49.296;11.348;2023-03-14T09:45:47;94503.97;;;13.44;83.11
30339;BME280;795;49.296;11.348;2023-03-14T09:48:26;94501.63;;;13.82;81.38
30339;BME280;795;49.296;11.348;2023-03-14T09:50:58;94493.78;;;14.83;76.09
30339;BME280;795;49.296;11.348;2023-03-14T09:53:43;94456.53;;;14.85;73.86
30339;BME280;795;49.296;11.348;2023-03-14T09:56:26;94499.63;;;15.37;71.60
30339;BME280;795;49.296;11.348;2023-03-14T09:59:00;94484.00;;;15.72;70.09
30339;BME280;795;49.296;11.348;2023-03-14T10:01:33;94500.66;;;15.47;68.01
30339;BME280;795;49.296;11.348;2023-03-14T10:04:14;94501.59;;;14.17;72.92
30339;BME280;795;49.296;11.348;2023-03-14T10:06:42;94482.97;;;13.57;76.35
30339;BME280;795;49.296;11.348;2023-03-14T10:09:25;94462.47;;;13.33;78.93
30339;BME280;795;49.296;11.348;2023-03-14T10:11:58;94477.13;;;13.60;77.64
30339;BME280;795;49.296;11.348;2023-03-14T10:14:33;94482.03;;;13.28;78.90
30339;BME280;795;49.296;11.348;2023-03-14T10:17:13;94471.25;;;13.40;78.68
30339;BME280;795;49.296;11.348;2023-03-14T10:20:01;94472.34;;;12.98;83.05
30339;BME280;795;49.296;11.348;2023-03-14T10:22:31;94487.28;;;13.12;83.89
30339;BME280;795;49.296;11.348;2023-03-14T10:25:25;94468.69;;;13.04;82.38
30339;BME280;795;49.296;11.348;2023-03-14T10:27:52;94464.75;;;12.77;82.60
30339;BME280;795;49.296;11.348;2023-03-14T10:30:45;94476.09;;;12.67;84.18
30339;BME280;795;49.296;11.348;2023-03-14T10:36:27;94462.78;;;13.25;80.50
30339;BME280;795;49.296;11.348;2023-03-14T10:39:49;94457.56;;;13.53;79.38
30339;BME280;795;49.296;11.348;2023-03-14T10:42:48;94452.38;;;13.40;76.78
30339;BME280;795;49.296;11.348;2023-03-14T10:45:41;94469.00;;;13.83;75.07
30339;BME280;795;49.296;11.348;2023-03-14T10:48:24;94455.84;;;14.22;70.40
30339;BME280;795;49.296;11.348;2023-03-14T10:53:45;94467.88;;;14.71;69.29
30339;BME280;795;49.296;11.348;2023-03-14T10:56:23;94462.06;;;14.11;70.62
30339;BME280;795;49.296;11.348;2023-03-14T10:58:57;94442.19;;;13.77;71.22
30339;BME280;795;49.296;11.348;2023-03-14T11:01:57;94459.88;;;13.15;73.99
30339;BME280;795;49.296;11.348;2023-03-14T11:04:57;94461.00;;;12.66;78.38
30339;BME280;795;49.296;11.348;2023-03-14T11:10:33;94463.44;;;12.68;81.49
30339;BME280;795;49.296;11.348;2023-03-14T11:17:11;94454.38;;;12.50;80.92
30339;BME280;795;49.296;11.348;2023-03-14T11:23:36;94434.13;;;12.18;85.83
30339;BME280;795;49.296;11.348;2023-03-14T11:26:48;94459.09;;;12.07;85.80
30339;BME280;795;49.296;11.348;2023-03-14T11:29:30;94465.19;;;12.32;85.27
30339;BME280;795;49.296;11.348;2023-03-14T11:34:56;94454.94;;;12.41;84.20
30339;BME280;795;49.296;11.348;2023-03-14T11:37:47;94427.19;;;12.40;81.21
30339;BME280;795;49.296;11.348;2023-03-14T11:40:25;94448.16;;;12.50;79.37
30339;BME280;795;49.296;11.348;2023-03-14T11:45:45;94443.22;;;13.06;80.19
30339;BME280;795;49.296;11.348;2023-03-14T11:48:35;94458.69;;;13.11;75.83
30339;BME280;795;49.296;11.348;2023-03-14T11:51:21;94417.00;;;13.48;72.19
30339;BME280;795;49.296;11.348;2023-03-14T11:54:23;94424.97;;;13.43;71.54
30339;BME280;795;49.296;11.348;2023-03-14T11:57:05;94447.59;;;13.54;72.85
30339;BME280;795;49.296;11.348;2023-03-14T12:03:29;94444.66;;;15.64;62.70
30339;BME280;795;49.296;11.348;2023-03-14T12:06:28;94431.91;;;14.53;64.49
30339;BME280;795;49.296;11.348;2023-03-14T12:09:02;94429.31;;;15.70;62.79
30339;BME280;795;49.296;11.348;2023-03-14T12:11:57;94408.09;;;16.00;59.26
30339;BME280;795;49.296;11.348;2023-03-14T12:14:44;94431.91;;;15.60;61.05
30339;BME280;795;49.296;11.348;2023-03-14T12:17:24;94402.69;;;14.95;62.37
30339;BME280;795;49.296;11.348;2023-03-14T12:20:24;94421.75;;;15.88;62.47
30339;BME280;795;49.296;11.348;2023-03-14T12:23:10;94416.13;;;15.23;62.77
30339;BME280;795;49.296;11.348;2023-03-14T12:25:38;94421.50;;;16.12;60.55
30339;BME280;795;49.296;11.348;2023-03-14T12:28:30;94416.16;;;16.60;58.39
30339;BME280;795;49.296;11.348;2023-03-14T12:36:56;94416.09;;;16.33;56.25
30339;BME280;795;49.296;11.348;2023-03-14T12:39:56;94421.94;;;15.32;60.31
30339;BME280;795;49.296;11.348;2023-03-14T12:42:59;94425.50;;;14.71;63.64
30339;BME280;795;49.296;11.348;2023-03-14T12:45:35;94389.69;;;14.08;63.63
30339;BME280;795;49.296;11.348;2023-03-14T12:48:23;94409.13;;;13.47;66.00
30339;BME280;795;49.296;11.348;2023-03-14T12:51:01;94406.13;;;13.20;68.58
30339;BME280;795;49.296;11.348;2023-03-14T12:56:58;94389.06;;;12.85;71.30
30339;BME280;795;49.296;11.348;2023-03-14T12:59:52;94409.91;;;13.01;71.62
30339;BME280;795;49.296;11.348;2023-03-14T13:02:27;94386.84;;;13.05;71.29
30339;BME280;795;49.296;11.348;2023-03-14T13:05:10;94406.13;;;13.20;69.60
30339;BME280;795;49.296;11.348;2023-03-14T13:10:38;94405.53;;;13.29;69.57
30339;BME280;795;49.296;11.348;2023-03-14T13:13:23;94386.59;;;12.83;69.41
30339;BME280;795;49.296;11.348;2023-03-14T13:16:01;94385.25;;;12.62;70.86
30339;BME280;795;49.296;11.348;2023-03-14T13:18:38;94414.00;;;12.50;73.40
30339;BME280;795;49.296;11.348;2023-03-14T13:21:19;94416.31;;;11.87;83.79
30339;BME280;795;49.296;11.348;2023-03-14T13:24:05;94434.59;;;11.18;97.25
30339;BME280;795;49.296;11.348;2023-03-14T13:26:43;94440.53;;;10.71;100.00
30339;BME280;795;49.296;11.348;2023-03-14T13:29:25;94429.31;;;10.18;100.00
30339;BME280;795;49.296;11.348;2023-03-14T13:32:18;94446.56;;;9.84;100.00
30339;BME280;795;49.296;11.348;2023-03-14T13:34:47;94464.19;;;9.47;100.00
30339;BME280;795;49.296;11.348;2023-03-14T13:37:25;94485.25;;;9.37;100.00
30339;BME280;795;49.296;11.348;2023-03-14T13:39:57;94496.81;;;9.18;100.00
30339;BME280;795;49.296;11.348;2023-03-14T13:42:29;94507.31;;;9.13;100.00
30339;BME280;795;49.296;11.348;2023-03-14T13:44:57;94492.28;;;9.05;100.00
30339;BME280;795;49.296;11.348;2023-03-14T13:47:26;94514.91;;;9.03;100.00
30339;BME280;795;49.296;11.348;2023-03-14T13:49:54;94508.31;;;8.92;100.00
30339;BME280;795;49.296;11.348;2023-03-14T13:52:31;94511.00;;;8.79;100.00
30339;BME280;795;49.296;11.348;2023-03-14T13:55:02;94538.38;;;8.81;100.00
30339;BME280;795;49.296;11.348;2023-03-14T13:57:53;94539.56;;;8.65;100.00
30339;BME280;795;49.296;11.348;2023-03-14T14:00:27;94534.59;;;8.49;100.00
30339;BME280;795;49.296;11.348;2023-03-14T14:02:58;94507.81;;;8.30;100.00
30339;BME280;795;49.296;11.348;2023-03-14T14:05:29;94510.25;;;8.31;100.00
30339;BME280;795;49.296;11.348;2023-03-14T14:07:58;94519.47;;;8.22;100.00
30339;BME280;795;49.296;11.348;2023-03-14T14:10:29;94562.53;;;8.40;100.00
30339;BME280;795;49.296;11.348;2023-03-14T14:13:03;94568.91;;;8.39;100.00
30339;BME280;795;49.296;11.348;2023-03-14T14:15:44;94567.06;;;8.40;100.00
30339;BME280;795;49.296;11.348;2023-03-14T14:18:18;94568.28;;;8.37;100.00
30339;BME280;795;49.296;11.348;2023-03-14T14:20:50;94560.56;;;8.21;100.00
30339;BME280;795;49.296;11.348;2023-03-14T14:23:25;94576.06;;;8.32;100.00